createdAt,value
2022-10-09T00:00:09.462Z,9.87
2022-10-09T00:01:09.471Z,9.87
2022-10-09T00:02:09.687Z,9.87
2022-10-09T00:03:09.432Z,9.84
2022-10-09T00:04:09.426Z,9.86
2022-10-09T00:05:09.460Z,9.84
2022-10-09T00:06:09.397Z,9.84
2022-10-09T00:07:09.380Z,9.84
2022-10-09T00:08:09.372Z,9.84
2022-10-09T00:09:09.367Z,9.81
2022-10-09T00:10:09.342Z,9.81
2022-10-09T00:11:09.349Z,9.81
2022-10-09T00:12:09.323Z,9.81
2022-10-09T00:13:09.315Z,9.79
2022-10-09T00:14:09.314Z,9.78
2022-10-09T00:15:09.427Z,9.79
2022-10-09T00:16:09.299Z,9.78
2022-10-09T00:17:09.347Z,9.79
2022-10-09T00:18:09.260Z,9.78
2022-10-09T00:19:09.707Z,9.76
2022-10-09T00:20:09.242Z,9.76
2022-10-09T00:21:09.225Z,9.76
2022-10-09T00:22:09.230Z,9.75
2022-10-09T00:23:09.204Z,9.75
2022-10-09T00:24:09.208Z,9.75
2022-10-09T00:25:09.193Z,9.74
2022-10-09T00:26:09.178Z,9.74
2022-10-09T00:27:09.160Z,9.74
2022-10-09T00:28:09.187Z,9.71
2022-10-09T00:29:09.143Z,9.72
2022-10-09T00:30:09.169Z,9.72
2022-10-09T00:31:09.178Z,9.69
2022-10-09T00:32:09.118Z,9.69
2022-10-09T00:33:09.092Z,9.68
2022-10-09T00:34:09.090Z,9.66
2022-10-09T00:35:09.080Z,9.65
2022-10-09T00:36:09.083Z,9.65
2022-10-09T00:37:09.051Z,9.65
2022-10-09T00:38:09.046Z,9.64
2022-10-09T00:39:09.033Z,9.61
2022-10-09T00:40:09.034Z,9.61
2022-10-09T00:41:09.016Z,9.61
2022-10-09T00:42:09.005Z,9.61
2022-10-09T00:43:08.993Z,9.61
2022-10-09T00:44:08.983Z,9.61
2022-10-09T00:45:08.968Z,9.61
2022-10-09T00:46:09.059Z,9.61
2022-10-09T00:47:08.956Z,9.58
2022-10-09T00:48:08.947Z,9.58
2022-10-09T00:49:08.929Z,9.58
2022-10-09T00:50:08.922Z,9.57
2022-10-09T00:51:08.907Z,9.57
2022-10-09T00:52:08.907Z,9.57
2022-10-09T00:53:08.886Z,9.57
2022-10-09T00:54:08.876Z,9.57
2022-10-09T00:55:08.856Z,9.56
2022-10-09T00:56:08.857Z,9.56
2022-10-09T00:57:08.863Z,9.56
2022-10-09T00:58:08.829Z,9.54
2022-10-09T00:59:08.812Z,9.54
2022-10-09T01:00:08.815Z,9.53
2022-10-09T01:01:08.833Z,9.53
2022-10-09T01:02:08.861Z,9.53
2022-10-09T01:03:08.789Z,9.54
2022-10-09T01:04:08.766Z,9.53
2022-10-09T01:05:08.764Z,9.51
2022-10-09T01:06:08.745Z,9.51
2022-10-09T01:07:08.729Z,9.51
2022-10-09T01:08:08.731Z,9.48
2022-10-09T01:09:08.707Z,9.50
2022-10-09T01:10:08.700Z,9.48
2022-10-09T01:11:08.693Z,9.48
2022-10-09T01:12:08.757Z,9.47
2022-10-09T01:13:08.679Z,9.48
2022-10-09T01:14:08.667Z,9.48
2022-10-09T01:15:08.651Z,9.48
2022-10-09T01:16:08.689Z,9.51
2022-10-09T01:17:08.622Z,9.51
2022-10-09T01:18:08.622Z,9.51
2022-10-09T01:19:08.605Z,9.50
2022-10-09T01:20:08.603Z,9.51
2022-10-09T01:21:08.584Z,9.50
2022-10-09T01:22:08.570Z,9.50
2022-10-09T01:23:08.561Z,9.50
2022-10-09T01:24:08.549Z,9.48
2022-10-09T01:25:08.644Z,9.50
2022-10-09T01:26:08.539Z,9.50
2022-10-09T01:27:08.521Z,9.51
2022-10-09T01:28:08.562Z,9.50
2022-10-09T01:29:08.498Z,9.50
2022-10-09T01:30:08.703Z,9.50
2022-10-09T01:31:08.524Z,9.50
2022-10-09T01:32:08.468Z,9.50
2022-10-09T01:33:08.453Z,9.47
2022-10-09T01:34:08.444Z,9.46
2022-10-09T01:35:08.754Z,9.47
2022-10-09T01:36:08.426Z,9.46
2022-10-09T01:37:08.413Z,9.46
2022-10-09T01:38:08.404Z,9.47
2022-10-09T01:39:08.390Z,9.43
2022-10-09T01:40:08.380Z,9.43
2022-10-09T01:41:08.370Z,9.42
2022-10-09T01:42:08.363Z,9.40
2022-10-09T01:43:08.341Z,9.39
2022-10-09T01:44:08.340Z,9.39
2022-10-09T01:45:08.330Z,9.36
2022-10-09T01:46:08.339Z,9.36
2022-10-09T01:47:08.313Z,9.35
2022-10-09T01:48:08.291Z,9.35
2022-10-09T01:49:08.289Z,9.33
2022-10-09T01:50:08.268Z,9.33
2022-10-09T01:51:08.264Z,9.31
2022-10-09T01:52:08.250Z,9.29
2022-10-09T01:53:08.233Z,9.31
2022-10-09T01:54:08.220Z,9.29
2022-10-09T01:55:08.221Z,9.29
2022-10-09T01:56:08.205Z,9.31
2022-10-09T01:57:08.201Z,9.26
2022-10-09T01:58:08.180Z,9.24
2022-10-09T01:59:11.227Z,9.26
2022-10-09T02:00:08.173Z,9.24
2022-10-09T02:01:08.230Z,9.24
2022-10-09T02:02:08.252Z,9.24
2022-10-09T02:03:08.121Z,9.23
2022-10-09T02:04:08.115Z,9.23
2022-10-09T02:05:08.119Z,9.23
2022-10-09T02:06:08.093Z,9.18
2022-10-09T02:07:08.087Z,9.20
2022-10-09T02:08:08.072Z,9.20
2022-10-09T02:09:08.056Z,9.20
2022-10-09T02:10:08.072Z,9.20
2022-10-09T02:11:08.054Z,9.20
2022-10-09T02:12:08.023Z,9.20
2022-10-09T02:13:08.016Z,9.21
2022-10-09T02:14:08.001Z,9.18
2022-10-09T02:15:07.996Z,9.18
2022-10-09T02:16:08.073Z,9.17
2022-10-09T02:17:07.981Z,9.17
2022-10-09T02:18:07.969Z,9.17
2022-10-09T02:19:07.952Z,9.17
2022-10-09T02:20:07.938Z,9.17
2022-10-09T02:21:07.934Z,9.15
2022-10-09T02:22:07.920Z,9.14
2022-10-09T02:23:07.913Z,9.13
2022-10-09T02:24:07.930Z,9.11
2022-10-09T02:25:07.892Z,9.11
2022-10-09T02:26:07.880Z,9.11
2022-10-09T02:27:07.878Z,9.10
2022-10-09T02:28:07.908Z,9.10
2022-10-09T02:29:07.843Z,9.04
2022-10-09T02:30:07.835Z,9.04
2022-10-09T02:31:07.904Z,9.05
2022-10-09T02:32:07.811Z,9.02
2022-10-09T02:33:07.812Z,9.02
2022-10-09T02:34:07.785Z,9.01
2022-10-09T02:35:07.775Z,9.01
2022-10-09T02:36:07.759Z,8.99
2022-10-09T02:37:07.750Z,8.99
2022-10-09T02:38:07.746Z,9.01
2022-10-09T02:39:07.775Z,9.01
2022-10-09T02:40:10.706Z,9.01
2022-10-09T02:41:07.713Z,9.01
2022-10-09T02:42:07.689Z,9.04
2022-10-09T02:43:07.685Z,9.02
2022-10-09T02:44:07.684Z,9.02
2022-10-09T02:45:07.667Z,9.01
2022-10-09T02:46:07.731Z,9.01
2022-10-09T02:47:07.650Z,8.99
2022-10-09T02:48:07.627Z,8.98
2022-10-09T02:49:07.633Z,8.98
2022-10-09T02:50:07.608Z,8.96
2022-10-09T02:51:07.606Z,8.95
2022-10-09T02:52:07.578Z,8.95
2022-10-09T02:53:07.574Z,8.94
2022-10-09T02:54:07.573Z,8.92
2022-10-09T02:55:07.560Z,8.92
2022-10-09T02:56:07.544Z,8.92
2022-10-09T02:57:07.545Z,8.92
2022-10-09T02:58:07.522Z,8.94
2022-10-09T02:59:07.525Z,8.92
2022-10-09T03:00:07.510Z,8.94
2022-10-09T03:01:07.490Z,8.95
2022-10-09T03:02:07.550Z,8.94
2022-10-09T03:03:07.489Z,8.94
2022-10-09T03:04:07.455Z,8.95
2022-10-09T03:05:07.454Z,8.94
2022-10-09T03:06:07.430Z,8.96
2022-10-09T03:07:07.427Z,8.96
2022-10-09T03:08:07.415Z,8.98
2022-10-09T03:09:07.394Z,8.98
2022-10-09T03:10:07.392Z,8.98
2022-10-09T03:11:07.382Z,8.99
2022-10-09T03:12:07.367Z,8.99
2022-10-09T03:13:07.365Z,8.98
2022-10-09T03:14:07.339Z,8.98
2022-10-09T03:15:07.333Z,8.98
2022-10-09T03:16:07.368Z,8.96
2022-10-09T03:17:07.324Z,8.96
2022-10-09T03:18:07.350Z,8.95
2022-10-09T03:19:07.318Z,8.94
2022-10-09T03:20:07.278Z,8.91
2022-10-09T03:21:07.279Z,8.89
2022-10-09T03:22:07.272Z,8.91
2022-10-09T03:23:07.238Z,8.91
2022-10-09T03:24:07.232Z,8.87
2022-10-09T03:25:07.231Z,8.86
2022-10-09T03:26:07.219Z,8.86
2022-10-09T03:27:07.211Z,8.84
2022-10-09T03:28:07.272Z,8.83
2022-10-09T03:29:07.183Z,8.80
2022-10-09T03:30:07.167Z,8.80
2022-10-09T03:31:07.215Z,8.80
2022-10-09T03:32:07.195Z,8.79
2022-10-09T03:33:07.147Z,8.77
2022-10-09T03:34:07.129Z,8.74
2022-10-09T03:35:07.106Z,8.74
2022-10-09T03:36:07.108Z,8.76
2022-10-09T03:37:07.088Z,8.73
2022-10-09T03:38:07.105Z,8.73
2022-10-09T03:39:07.060Z,8.70
2022-10-09T03:40:07.075Z,8.70
2022-10-09T03:41:07.048Z,8.70
2022-10-09T03:42:07.052Z,8.68
2022-10-09T03:43:07.038Z,8.68
2022-10-09T03:44:07.026Z,8.68
2022-10-09T03:45:07.006Z,8.66
2022-10-09T03:46:07.007Z,8.63
2022-10-09T03:47:06.986Z,8.63
2022-10-09T03:48:06.970Z,8.63
2022-10-09T03:49:06.968Z,8.63
2022-10-09T03:50:06.956Z,8.63
2022-10-09T03:51:06.931Z,8.61
2022-10-09T03:52:06.925Z,8.62
2022-10-09T03:53:06.915Z,8.61
2022-10-09T03:54:06.913Z,8.61
2022-10-09T03:55:06.884Z,8.59
2022-10-09T03:56:06.902Z,8.59
2022-10-09T03:57:06.873Z,8.61
2022-10-09T03:58:06.862Z,8.59
2022-10-09T03:59:06.861Z,8.58
2022-10-09T04:00:06.849Z,8.58
2022-10-09T04:01:06.848Z,8.56
2022-10-09T04:02:06.870Z,8.58
2022-10-09T04:03:06.857Z,8.58
2022-10-09T04:04:06.799Z,8.59
2022-10-09T04:05:06.798Z,8.58
2022-10-09T04:06:06.785Z,8.58
2022-10-09T04:07:06.761Z,8.58
2022-10-09T04:08:06.756Z,8.58
2022-10-09T04:09:06.746Z,8.58
2022-10-09T04:10:06.742Z,8.58
2022-10-09T04:11:06.723Z,8.56
2022-10-09T04:12:06.718Z,8.58
2022-10-09T04:13:06.702Z,8.56
2022-10-09T04:14:06.691Z,8.59
2022-10-09T04:15:06.675Z,8.56
2022-10-09T04:16:06.739Z,8.56
2022-10-09T04:17:06.650Z,8.56
2022-10-09T04:18:06.655Z,8.55
2022-10-09T04:19:06.640Z,8.53
2022-10-09T04:20:06.618Z,8.53
2022-10-09T04:21:06.603Z,8.53
2022-10-09T04:22:06.607Z,8.52
2022-10-09T04:23:06.594Z,8.53
2022-10-09T04:24:06.584Z,8.50
2022-10-09T04:25:06.560Z,8.48
2022-10-09T04:26:06.562Z,8.47
2022-10-09T04:27:06.578Z,8.47
2022-10-09T04:28:06.604Z,8.47
2022-10-09T04:29:06.517Z,8.47
2022-10-09T04:30:06.513Z,8.47
2022-10-09T04:31:06.569Z,8.47
2022-10-09T04:32:06.493Z,8.47
2022-10-09T04:33:11.782Z,8.45
2022-10-09T04:34:06.479Z,8.45
2022-10-09T04:35:06.462Z,8.45
2022-10-09T04:36:06.452Z,8.47
2022-10-09T04:37:06.433Z,8.44
2022-10-09T04:38:06.435Z,8.43
2022-10-09T04:39:06.420Z,8.44
2022-10-09T04:40:06.405Z,8.44
2022-10-09T04:41:06.390Z,8.43
2022-10-09T04:42:06.398Z,8.43
2022-10-09T04:43:06.401Z,8.41
2022-10-09T04:44:06.368Z,8.38
2022-10-09T04:45:06.356Z,8.40
2022-10-09T04:46:06.426Z,8.38
2022-10-09T04:47:11.168Z,8.36
2022-10-09T04:48:06.377Z,8.36
2022-10-09T04:49:06.318Z,8.36
2022-10-09T04:50:06.295Z,8.34
2022-10-09T04:51:06.293Z,8.34
2022-10-09T04:52:06.284Z,8.33
2022-10-09T04:53:06.272Z,8.30
2022-10-09T04:54:06.267Z,8.33
2022-10-09T04:55:06.240Z,8.30
2022-10-09T04:56:06.233Z,8.30
2022-10-09T04:57:06.223Z,8.30
2022-10-09T04:58:06.218Z,8.29
2022-10-09T04:59:06.199Z,8.30
2022-10-09T05:00:06.196Z,8.29
2022-10-09T05:01:06.277Z,8.29
2022-10-09T05:02:06.244Z,8.29
2022-10-09T05:03:06.172Z,8.28
2022-10-09T05:04:06.162Z,8.26
2022-10-09T05:05:06.170Z,8.26
2022-10-09T05:06:06.209Z,8.25
2022-10-09T05:07:06.150Z,8.23
2022-10-09T05:08:06.115Z,8.22
2022-10-09T05:09:06.084Z,8.22
2022-10-09T05:10:06.085Z,8.22
2022-10-09T05:11:06.108Z,8.20
2022-10-09T05:12:06.061Z,8.19
2022-10-09T05:13:06.042Z,8.19
2022-10-09T05:14:06.040Z,8.22
2022-10-09T05:15:06.027Z,8.20
2022-10-09T05:16:06.069Z,8.19
2022-10-09T05:17:14.188Z,8.18
2022-10-09T05:18:06.001Z,8.19
2022-10-09T05:19:05.977Z,8.18
2022-10-09T05:20:05.983Z,8.19
2022-10-09T05:21:05.974Z,8.19
2022-10-09T05:22:05.962Z,8.19
2022-10-09T05:23:05.946Z,8.19
2022-10-09T05:24:09.563Z,8.18
2022-10-09T05:25:05.922Z,8.16
2022-10-09T05:26:05.921Z,8.15
2022-10-09T05:27:05.912Z,8.15
2022-10-09T05:28:05.943Z,8.11
2022-10-09T05:29:05.871Z,8.11
2022-10-09T05:30:05.878Z,8.07
2022-10-09T05:31:05.857Z,8.05
2022-10-09T05:32:05.895Z,8.02
2022-10-09T05:33:05.832Z,8.02
2022-10-09T05:34:05.822Z,8.01
2022-10-09T05:35:05.812Z,8.01
2022-10-09T05:36:05.810Z,8.00
2022-10-09T05:37:05.817Z,7.97
2022-10-09T05:38:05.783Z,7.98
2022-10-09T05:39:05.770Z,8.00
2022-10-09T05:40:05.766Z,8.00
2022-10-09T05:41:05.751Z,8.00
2022-10-09T05:42:05.758Z,7.98
2022-10-09T05:43:05.734Z,7.97
2022-10-09T05:44:05.865Z,7.97
2022-10-09T05:45:05.711Z,7.98
2022-10-09T05:46:05.764Z,7.97
2022-10-09T05:47:05.686Z,7.98
2022-10-09T05:48:05.686Z,8.00
2022-10-09T05:49:05.696Z,7.98
2022-10-09T05:50:05.657Z,7.98
2022-10-09T05:51:05.643Z,8.00
2022-10-09T05:52:05.633Z,7.97
2022-10-09T05:53:05.616Z,7.97
2022-10-09T05:54:05.627Z,7.95
2022-10-09T05:55:05.602Z,7.95
2022-10-09T05:56:05.595Z,7.93
2022-10-09T05:57:05.573Z,7.93
2022-10-09T05:58:05.573Z,7.93
2022-10-09T05:59:05.565Z,7.93
2022-10-09T06:00:05.558Z,7.92
2022-10-09T06:01:05.599Z,7.93
2022-10-09T06:02:05.576Z,7.93
2022-10-09T06:03:05.526Z,7.95
2022-10-09T06:04:05.527Z,7.97
2022-10-09T06:05:05.496Z,7.95
2022-10-09T06:06:05.487Z,7.93
2022-10-09T06:07:05.472Z,7.95
2022-10-09T06:08:05.483Z,7.97
2022-10-09T06:09:05.459Z,7.97
2022-10-09T06:10:05.455Z,7.98
2022-10-09T06:11:05.426Z,7.98
2022-10-09T06:12:05.428Z,7.98
2022-10-09T06:13:05.409Z,7.98
2022-10-09T06:14:05.405Z,7.97
2022-10-09T06:15:05.409Z,8.00
2022-10-09T06:16:05.388Z,8.01
2022-10-09T06:17:05.493Z,8.01
2022-10-09T06:18:05.357Z,8.01
2022-10-09T06:19:05.586Z,8.02
2022-10-09T06:20:05.344Z,8.04
2022-10-09T06:21:05.341Z,8.05
2022-10-09T06:22:05.328Z,8.07
2022-10-09T06:23:05.305Z,8.08
2022-10-09T06:24:05.293Z,8.10
2022-10-09T06:25:05.276Z,8.10
2022-10-09T06:26:05.271Z,8.12
2022-10-09T06:27:05.276Z,8.15
2022-10-09T06:28:05.313Z,8.16
2022-10-09T06:29:05.233Z,8.18
2022-10-09T06:30:05.302Z,8.19
2022-10-09T06:31:05.275Z,8.20
2022-10-09T06:32:05.222Z,8.22
2022-10-09T06:33:05.214Z,8.22
2022-10-09T06:34:05.192Z,8.26
2022-10-09T06:35:05.183Z,8.26
2022-10-09T06:36:10.033Z,8.29
2022-10-09T06:37:05.164Z,8.29
2022-10-09T06:38:05.144Z,8.29
2022-10-09T06:39:05.132Z,8.34
2022-10-09T06:40:05.128Z,8.37
2022-10-09T06:41:05.120Z,8.38
2022-10-09T06:42:05.109Z,8.40
2022-10-09T06:43:05.089Z,8.43
2022-10-09T06:44:05.080Z,8.44
2022-10-09T06:45:05.065Z,8.47
2022-10-09T06:46:05.154Z,8.50
2022-10-09T06:47:05.057Z,8.55
2022-10-09T06:48:05.033Z,8.58
2022-10-09T06:49:05.041Z,8.59
2022-10-09T06:50:05.029Z,8.61
2022-10-09T06:51:05.019Z,8.62
2022-10-09T06:52:05.005Z,8.65
2022-10-09T06:53:04.979Z,8.68
2022-10-09T06:54:04.973Z,8.70
2022-10-09T06:55:04.963Z,8.73
2022-10-09T06:56:04.969Z,8.76
2022-10-09T06:57:04.983Z,8.77
2022-10-09T06:58:04.929Z,8.80
2022-10-09T06:59:04.907Z,8.83
2022-10-09T07:00:04.958Z,8.86
2022-10-09T07:01:05.017Z,8.89
2022-10-09T07:02:05.060Z,8.94
2022-10-09T07:03:04.941Z,8.96
2022-10-09T07:04:04.860Z,8.99
2022-10-09T07:05:04.842Z,9.04
2022-10-09T07:06:04.845Z,9.08
2022-10-09T07:07:04.904Z,9.11
2022-10-09T07:08:04.809Z,9.14
2022-10-09T07:09:04.798Z,9.17
2022-10-09T07:10:04.793Z,9.21
2022-10-09T07:11:04.785Z,9.26
2022-10-09T07:12:04.774Z,9.31
2022-10-09T07:13:04.800Z,9.33
2022-10-09T07:14:04.752Z,9.36
2022-10-09T07:15:04.739Z,9.40
2022-10-09T07:16:05.202Z,9.42
2022-10-09T07:17:04.710Z,9.47
2022-10-09T07:18:04.711Z,9.50
2022-10-09T07:19:04.707Z,9.53
2022-10-09T07:20:04.684Z,9.56
2022-10-09T07:21:04.668Z,9.58
2022-10-09T07:22:04.673Z,9.57
2022-10-09T07:23:04.649Z,9.61
2022-10-09T07:24:04.657Z,9.64
2022-10-09T07:25:04.621Z,9.66
2022-10-09T07:26:04.625Z,9.68
2022-10-09T07:27:04.600Z,9.72
2022-10-09T07:28:04.656Z,9.76
2022-10-09T07:29:04.594Z,9.78
2022-10-09T07:30:04.588Z,9.81
2022-10-09T07:31:04.616Z,9.84
2022-10-09T07:32:09.603Z,9.87
2022-10-09T07:33:04.549Z,9.90
2022-10-09T07:34:04.545Z,9.93
2022-10-09T07:35:04.518Z,9.94
2022-10-09T07:36:04.521Z,9.96
2022-10-09T07:37:04.515Z,9.97
2022-10-09T07:38:04.485Z,10.01
2022-10-09T07:39:04.510Z,10.04
2022-10-09T07:40:04.472Z,10.04
2022-10-09T07:41:04.469Z,10.08
2022-10-09T07:42:04.456Z,10.09
2022-10-09T07:43:04.442Z,10.12
2022-10-09T07:44:04.434Z,10.14
2022-10-09T07:45:04.414Z,10.18
2022-10-09T07:46:04.482Z,10.22
2022-10-09T07:47:04.403Z,10.23
2022-10-09T07:48:04.373Z,10.23
2022-10-09T07:49:04.382Z,10.26
2022-10-09T07:50:04.357Z,10.29
2022-10-09T07:51:04.351Z,10.30
2022-10-09T07:52:04.330Z,10.34
2022-10-09T07:53:04.327Z,10.36
2022-10-09T07:54:04.330Z,10.38
2022-10-09T07:55:04.316Z,10.41
2022-10-09T07:56:04.289Z,10.42
2022-10-09T07:57:04.280Z,10.45
2022-10-09T07:58:04.265Z,10.48
2022-10-09T07:59:04.275Z,10.52
2022-10-09T08:00:04.270Z,10.56
2022-10-09T08:01:04.280Z,10.60
2022-10-09T08:02:04.335Z,10.63
2022-10-09T08:03:04.247Z,10.66
2022-10-09T08:04:04.206Z,10.68
2022-10-09T08:05:04.213Z,10.70
2022-10-09T08:06:04.190Z,10.70
2022-10-09T08:07:04.181Z,10.73
2022-10-09T08:08:04.159Z,10.74
2022-10-09T08:09:04.152Z,10.78
2022-10-09T08:10:04.163Z,10.78
2022-10-09T08:11:04.133Z,10.81
2022-10-09T08:12:04.119Z,10.82
2022-10-09T08:13:04.103Z,10.85
2022-10-09T08:14:04.099Z,10.86
2022-10-09T08:15:04.095Z,10.88
2022-10-09T08:16:04.137Z,10.91
2022-10-09T08:17:04.149Z,10.92
2022-10-09T08:18:04.058Z,10.94
2022-10-09T08:19:04.060Z,10.97
2022-10-09T08:20:04.039Z,10.96
2022-10-09T08:21:04.016Z,11.00
2022-10-09T08:22:04.002Z,11.02
2022-10-09T08:23:04.027Z,11.02
2022-10-09T08:24:03.987Z,11.03
2022-10-09T08:25:04.014Z,11.03
2022-10-09T08:26:03.974Z,11.07
2022-10-09T08:27:03.955Z,11.09
2022-10-09T08:28:04.034Z,11.11
2022-10-09T08:29:03.947Z,11.15
2022-10-09T08:30:03.917Z,11.19
2022-10-09T08:31:03.965Z,11.21
2022-10-09T08:32:03.899Z,11.25
2022-10-09T08:33:03.898Z,11.28
2022-10-09T08:34:03.878Z,11.33
2022-10-09T08:35:03.865Z,11.36
2022-10-09T08:36:03.900Z,11.37
2022-10-09T08:37:03.850Z,11.42
2022-10-09T08:38:03.837Z,11.43
2022-10-09T08:39:03.827Z,11.44
2022-10-09T08:40:03.816Z,11.44
2022-10-09T08:41:03.898Z,11.47
2022-10-09T08:42:03.789Z,11.52
2022-10-09T08:43:03.792Z,11.54
2022-10-09T08:44:03.775Z,11.57
2022-10-09T08:45:03.779Z,11.58
2022-10-09T08:46:03.808Z,11.62
2022-10-09T08:47:03.752Z,11.65
2022-10-09T08:48:03.777Z,11.70
2022-10-09T08:49:03.744Z,11.75
2022-10-09T08:50:03.698Z,11.78
2022-10-09T08:51:03.712Z,11.79
2022-10-09T08:52:03.719Z,11.83
2022-10-09T08:53:03.678Z,11.85
2022-10-09T08:54:03.664Z,11.90
2022-10-09T08:55:03.653Z,11.91
2022-10-09T08:56:03.639Z,11.96
2022-10-09T08:57:03.635Z,11.98
2022-10-09T08:58:03.664Z,11.99
2022-10-09T08:59:03.605Z,12.01
2022-10-09T09:00:03.597Z,12.05
2022-10-09T09:01:03.592Z,12.07
2022-10-09T09:02:03.662Z,12.12
2022-10-09T09:03:03.616Z,12.13
2022-10-09T09:04:03.558Z,12.17
2022-10-09T09:05:03.543Z,12.20
2022-10-09T09:06:03.536Z,12.24
2022-10-09T09:07:03.521Z,12.28
2022-10-09T09:08:03.504Z,12.28
2022-10-09T09:09:03.501Z,12.32
2022-10-09T09:10:03.481Z,12.35
2022-10-09T09:11:03.471Z,12.37
2022-10-09T09:12:03.461Z,12.41
2022-10-09T09:13:03.458Z,12.42
2022-10-09T09:14:03.451Z,12.46
2022-10-09T09:15:03.429Z,12.47
2022-10-09T09:16:03.542Z,12.52
2022-10-09T09:17:03.418Z,12.52
2022-10-09T09:18:03.402Z,12.56
2022-10-09T09:19:03.405Z,12.59
2022-10-09T09:20:03.383Z,12.62
2022-10-09T09:21:03.359Z,12.64
2022-10-09T09:22:03.349Z,12.64
2022-10-09T09:23:03.360Z,12.65
2022-10-09T09:24:03.328Z,12.70
2022-10-09T09:25:03.390Z,12.71
2022-10-09T09:26:03.310Z,12.72
2022-10-09T09:27:03.310Z,12.77
2022-10-09T09:28:03.382Z,12.78
2022-10-09T09:29:03.314Z,12.79
2022-10-09T09:30:03.297Z,12.85
2022-10-09T09:31:03.355Z,12.86
2022-10-09T09:32:03.245Z,12.90
2022-10-09T09:33:03.246Z,12.92
2022-10-09T09:34:03.226Z,12.95
2022-10-09T09:35:03.221Z,12.97
2022-10-09T09:36:03.205Z,13.01
2022-10-09T09:37:03.191Z,13.04
2022-10-09T09:38:03.188Z,13.07
2022-10-09T09:39:54.202Z,13.10
2022-10-09T09:40:36.863Z,13.12
2022-10-09T09:41:03.148Z,13.15
2022-10-09T09:42:03.133Z,13.17
2022-10-09T09:43:05.091Z,13.20
2022-10-09T09:44:03.116Z,13.22
2022-10-09T09:45:03.115Z,13.25
2022-10-09T09:46:03.103Z,13.28
2022-10-09T09:47:03.081Z,13.29
2022-10-09T09:48:03.090Z,13.33
2022-10-09T09:49:08.561Z,13.36
2022-10-09T09:50:03.057Z,13.39
2022-10-09T09:51:26.684Z,13.42
2022-10-09T09:52:03.028Z,13.42
2022-10-09T09:53:03.012Z,13.45
2022-10-09T09:54:03.014Z,13.48
2022-10-09T09:55:03.007Z,13.52
2022-10-09T09:56:02.993Z,13.52
2022-10-09T09:57:21.810Z,13.55
2022-10-09T09:58:02.966Z,13.59
2022-10-09T09:59:02.957Z,13.63
2022-10-09T10:00:02.937Z,13.66
2022-10-09T10:01:02.969Z,13.69
2022-10-09T10:02:02.980Z,13.71
2022-10-09T10:03:02.910Z,13.71
2022-10-09T10:04:02.909Z,13.73
2022-10-09T10:05:02.882Z,13.77
2022-10-09T10:06:02.869Z,13.78
2022-10-09T10:07:02.893Z,13.82
2022-10-09T10:08:02.856Z,13.85
2022-10-09T10:09:02.850Z,13.88
2022-10-09T10:10:02.830Z,13.92
2022-10-09T10:11:02.821Z,13.96
2022-10-09T10:12:02.840Z,13.99
2022-10-09T10:13:02.823Z,14.02
2022-10-09T10:14:02.795Z,14.06
2022-10-09T10:15:02.788Z,14.10
2022-10-09T10:16:02.810Z,14.14
2022-10-09T10:17:02.759Z,14.17
2022-10-09T10:18:02.764Z,14.18
2022-10-09T10:19:02.754Z,14.22
2022-10-09T10:20:02.731Z,14.27
2022-10-09T10:21:02.721Z,14.33
2022-10-09T10:22:02.697Z,14.37
2022-10-09T10:23:02.691Z,14.42
2022-10-09T10:24:02.753Z,14.50
2022-10-09T10:25:02.692Z,14.51
2022-10-09T10:26:02.662Z,14.55
2022-10-09T10:27:02.694Z,14.60
2022-10-09T10:28:02.712Z,14.61
2022-10-09T10:29:02.656Z,14.68
2022-10-09T10:30:02.612Z,14.73
2022-10-09T10:31:02.674Z,14.80
2022-10-09T10:32:02.594Z,14.89
2022-10-09T10:33:02.579Z,14.96
2022-10-09T10:34:02.605Z,15.02
2022-10-09T10:35:02.573Z,15.07
2022-10-09T10:36:02.546Z,15.14
2022-10-09T10:37:03.432Z,15.20
2022-10-09T10:38:02.522Z,15.28
2022-10-09T10:39:02.523Z,15.35
2022-10-09T10:40:02.522Z,15.44
2022-10-09T10:41:02.532Z,15.56
2022-10-09T10:42:02.482Z,15.69
2022-10-09T10:43:02.470Z,15.90
2022-10-09T10:44:02.468Z,16.11
2022-10-09T10:45:02.472Z,16.15
2022-10-09T10:46:02.449Z,16.24
2022-10-09T10:47:02.453Z,16.20
2022-10-09T10:48:02.419Z,16.15
2022-10-09T10:49:02.411Z,16.08
2022-10-09T10:50:02.409Z,16.11
2022-10-09T10:51:02.381Z,16.21
2022-10-09T10:52:02.377Z,16.31
2022-10-09T10:53:02.379Z,16.42
2022-10-09T10:54:02.357Z,16.52
2022-10-09T10:55:02.359Z,16.68
2022-10-09T10:56:05.206Z,16.79
2022-10-09T10:57:02.322Z,16.93
2022-10-09T10:58:02.302Z,17.06
2022-10-09T10:59:02.298Z,16.98
2022-10-09T11:00:02.303Z,16.89
2022-10-09T11:01:02.338Z,16.89
2022-10-09T11:02:02.268Z,17.04
2022-10-09T11:03:02.297Z,17.18
2022-10-09T11:04:02.248Z,17.31
2022-10-09T11:05:02.240Z,17.44
2022-10-09T11:06:02.229Z,17.54
2022-10-09T11:07:02.220Z,17.64
2022-10-09T11:08:02.207Z,17.78
2022-10-09T11:09:02.197Z,17.92
2022-10-09T11:10:02.192Z,18.05
2022-10-09T11:11:02.188Z,18.14
2022-10-09T11:12:02.170Z,18.23
2022-10-09T11:13:02.495Z,18.27
2022-10-09T11:14:02.136Z,18.26
2022-10-09T11:15:02.159Z,18.10
2022-10-09T11:16:02.254Z,18.02
2022-10-09T11:17:02.113Z,18.02
2022-10-09T11:18:02.092Z,18.12
2022-10-09T11:19:02.083Z,18.21
2022-10-09T11:20:02.078Z,18.37
2022-10-09T11:21:02.068Z,18.54
2022-10-09T11:22:02.059Z,18.66
2022-10-09T11:23:02.062Z,18.76
2022-10-09T11:24:02.029Z,18.87
2022-10-09T11:25:02.029Z,18.85
2022-10-09T11:26:02.015Z,18.88
2022-10-09T11:27:03.608Z,19.00
2022-10-09T11:28:01.993Z,19.11
2022-10-09T11:29:02.002Z,19.19
2022-10-09T11:30:01.963Z,19.23
2022-10-09T11:31:01.951Z,19.28
2022-10-09T11:32:01.989Z,19.29
2022-10-09T11:33:01.939Z,19.16
2022-10-09T11:34:01.931Z,19.02
2022-10-09T11:35:01.911Z,18.87
2022-10-09T11:36:01.900Z,18.94
2022-10-09T11:37:01.895Z,19.00
2022-10-09T11:38:01.878Z,18.99
2022-10-09T11:39:01.883Z,19.07
2022-10-09T11:40:01.858Z,19.16
2022-10-09T11:41:06.491Z,19.26
2022-10-09T11:42:01.844Z,19.33
2022-10-09T11:43:01.831Z,19.44
2022-10-09T11:44:01.812Z,19.48
2022-10-09T11:45:01.814Z,19.54
2022-10-09T11:46:01.848Z,19.56
2022-10-09T11:47:02.502Z,19.44
2022-10-09T11:48:01.784Z,19.31
2022-10-09T11:49:01.757Z,19.22
2022-10-09T11:50:01.750Z,19.10
2022-10-09T11:51:01.742Z,18.95
2022-10-09T11:52:01.729Z,18.82
2022-10-09T11:53:01.728Z,18.72
2022-10-09T11:54:01.718Z,18.60
2022-10-09T11:55:01.707Z,18.51
2022-10-09T11:56:01.676Z,18.45
2022-10-09T11:57:04.195Z,18.33
2022-10-09T11:58:01.656Z,18.20
2022-10-09T11:59:01.650Z,18.05
2022-10-09T12:00:01.670Z,17.93
2022-10-09T12:01:01.674Z,17.90
2022-10-09T12:02:01.673Z,17.84
2022-10-09T12:03:01.609Z,17.79
2022-10-09T12:04:01.605Z,17.75
2022-10-09T12:05:01.597Z,17.74
2022-10-09T12:06:01.592Z,17.72
2022-10-09T12:07:01.568Z,17.72
2022-10-09T12:08:01.565Z,17.71
2022-10-09T12:09:01.541Z,17.70
2022-10-09T12:10:01.551Z,17.66
2022-10-09T12:11:01.543Z,17.66
2022-10-09T12:12:01.514Z,17.66
2022-10-09T12:13:01.495Z,17.66
2022-10-09T12:14:01.497Z,17.63
2022-10-09T12:15:01.484Z,17.58
2022-10-09T12:16:01.503Z,17.51
2022-10-09T12:17:01.598Z,17.48
2022-10-09T12:18:01.441Z,17.38
2022-10-09T12:19:01.434Z,17.28
2022-10-09T12:20:01.459Z,17.23
2022-10-09T12:21:01.419Z,17.23
2022-10-09T12:22:01.410Z,17.22
2022-10-09T12:23:25.172Z,17.23
2022-10-09T12:24:01.386Z,17.25
2022-10-09T12:25:01.371Z,17.28
2022-10-09T12:26:01.363Z,17.23
2022-10-09T12:27:01.357Z,17.22
2022-10-09T12:28:01.352Z,17.21
2022-10-09T12:29:01.320Z,17.18
2022-10-09T12:30:01.316Z,17.21
2022-10-09T12:31:01.343Z,17.21
2022-10-09T12:32:01.295Z,17.22
2022-10-09T12:33:01.296Z,17.21
2022-10-09T12:34:01.274Z,17.23
2022-10-09T12:35:01.255Z,17.22
2022-10-09T12:36:01.244Z,17.19
2022-10-09T12:37:01.238Z,17.14
2022-10-09T12:38:01.327Z,17.14
2022-10-09T12:39:01.225Z,17.11
2022-10-09T12:40:01.216Z,17.08
2022-10-09T12:41:01.204Z,17.06
2022-10-09T12:42:01.193Z,17.06
2022-10-09T12:43:01.189Z,17.06
2022-10-09T12:44:01.161Z,17.07
2022-10-09T12:45:01.179Z,17.11
2022-10-09T12:46:01.197Z,17.12
2022-10-09T12:47:01.137Z,17.14
2022-10-09T12:48:01.426Z,17.12
2022-10-09T12:49:01.133Z,17.08
2022-10-09T12:50:01.112Z,17.08
2022-10-09T12:51:01.100Z,17.06
2022-10-09T12:52:01.084Z,17.03
2022-10-09T12:53:01.070Z,17.00
2022-10-09T12:54:01.065Z,16.96
2022-10-09T12:55:01.062Z,16.91
2022-10-09T12:56:01.035Z,16.89
2022-10-09T12:57:01.021Z,16.85
2022-10-09T12:58:01.020Z,16.83
2022-10-09T12:59:01.013Z,16.83
2022-10-09T13:00:00.999Z,16.83
2022-10-09T13:01:01.182Z,16.85
2022-10-09T13:02:01.137Z,16.88
2022-10-09T13:03:01.076Z,16.93
2022-10-09T13:04:00.962Z,16.94
2022-10-09T13:05:00.943Z,16.98
2022-10-09T13:06:00.949Z,17.00
2022-10-09T13:07:00.920Z,17.01